createdAt,value
2023-03-29T00:02:02.665Z,4.05
2023-03-29T00:04:29.554Z,4.27
2023-03-29T00:06:56.370Z,4.33
2023-03-29T00:09:26.484Z,4.10
2023-03-29T00:11:53.121Z,4.05
2023-03-29T00:14:19.985Z,4.28
2023-03-29T00:16:47.090Z,4.29
2023-03-29T00:19:13.806Z,4.08
2023-03-29T00:21:40.857Z,4.29
2023-03-29T00:24:07.539Z,4.26
2023-03-29T00:26:34.135Z,4.62
2023-03-29T00:29:00.737Z,4.23
2023-03-29T00:31:27.527Z,4.50
2023-03-29T00:33:54.394Z,4.42
2023-03-29T00:36:22.190Z,4.64
2023-03-29T00:38:49.124Z,4.54
2023-03-29T00:41:16.299Z,4.58
2023-03-29T00:44:00.667Z,4.54
2023-03-29T00:46:29.787Z,4.70
2023-03-29T00:49:07.293Z,4.64
2023-03-29T00:51:39.514Z,4.56
2023-03-29T00:54:10.489Z,4.81
2023-03-29T00:56:41.436Z,4.67
2023-03-29T00:59:22.802Z,4.56
2023-03-29T01:01:57.798Z,4.74
2023-03-29T01:04:29.314Z,4.51
2023-03-29T01:07:03.100Z,4.56
2023-03-29T01:09:34.694Z,4.46
2023-03-29T01:12:08.448Z,4.44
2023-03-29T01:14:41.746Z,4.47
2023-03-29T01:17:08.665Z,4.70
2023-03-29T01:19:43.978Z,4.73
2023-03-29T01:22:19.565Z,4.40
2023-03-29T01:25:26.214Z,4.75
2023-03-29T01:28:02.531Z,4.21
2023-03-29T01:30:46.592Z,4.42
2023-03-29T01:33:21.619Z,3.95
2023-03-29T01:36:11.684Z,4.43
2023-03-29T01:39:04.973Z,4.32
2023-03-29T01:41:49.452Z,4.18
2023-03-29T01:44:28.907Z,4.40
2023-03-29T01:47:25.047Z,4.35
2023-03-29T01:49:57.058Z,4.28
2023-03-29T01:52:55.041Z,4.52
2023-03-29T01:55:33.871Z,4.74
2023-03-29T01:58:04.401Z,4.59
2023-03-29T02:00:34.851Z,4.42
2023-03-29T02:03:09.016Z,4.60
2023-03-29T02:05:39.765Z,4.60
2023-03-29T02:08:09.199Z,4.71
2023-03-29T02:10:36.919Z,4.58
2023-03-29T02:13:04.700Z,4.88
2023-03-29T02:15:31.308Z,4.67
2023-03-29T02:17:58.142Z,4.80
2023-03-29T02:20:30.228Z,4.67
2023-03-29T02:23:23.101Z,4.37
2023-03-29T02:25:53.508Z,5.02
2023-03-29T02:28:25.433Z,5.22
2023-03-29T02:31:11.558Z,5.17
2023-03-29T02:33:57.147Z,5.05
2023-03-29T02:36:33.990Z,4.91
2023-03-29T02:39:05.875Z,4.94
2023-03-29T02:41:34.694Z,5.28
2023-03-29T02:44:04.734Z,5.30
2023-03-29T02:46:31.589Z,5.40
2023-03-29T02:49:00.149Z,5.73
2023-03-29T02:51:32.178Z,5.72
2023-03-29T02:54:11.645Z,5.49
2023-03-29T02:56:48.146Z,5.33
2023-03-29T02:59:17.579Z,5.25
2023-03-29T03:01:44.832Z,5.36
2023-03-29T03:04:13.154Z,5.56
2023-03-29T03:06:40.459Z,5.63
2023-03-29T03:09:07.641Z,5.71
2023-03-29T03:11:34.371Z,5.63
2023-03-29T03:14:01.018Z,5.44
2023-03-29T03:16:28.045Z,5.61
2023-03-29T03:18:55.573Z,5.53
2023-03-29T03:21:23.072Z,5.84
2023-03-29T03:23:50.064Z,5.45
2023-03-29T03:26:18.169Z,5.61
2023-03-29T03:28:48.365Z,5.87
2023-03-29T03:31:15.016Z,5.25
2023-03-29T03:33:41.895Z,5.64
2023-03-29T03:36:11.144Z,5.82
2023-03-29T03:38:38.681Z,5.73
2023-03-29T03:41:09.684Z,5.86
2023-03-29T03:43:36.320Z,5.85
2023-03-29T03:46:03.235Z,5.71
2023-03-29T03:48:30.046Z,5.78
2023-03-29T03:50:59.083Z,5.43
2023-03-29T03:53:27.248Z,5.75
2023-03-29T03:55:58.054Z,5.50
2023-03-29T03:58:24.700Z,5.67
2023-03-29T04:00:51.548Z,6.02
2023-03-29T04:03:18.884Z,5.97
2023-03-29T04:05:47.207Z,5.69
2023-03-29T04:08:14.863Z,6.00
2023-03-29T04:10:41.758Z,5.91
2023-03-29T04:13:08.430Z,5.46
2023-03-29T04:15:38.732Z,5.38
2023-03-29T04:18:07.222Z,5.76
2023-03-29T04:20:34.638Z,6.08
2023-03-29T04:23:01.809Z,5.86
2023-03-29T04:25:28.545Z,5.79
2023-03-29T04:27:56.034Z,5.63
2023-03-29T04:30:23.345Z,5.52
2023-03-29T04:32:49.984Z,5.68
2023-03-29T04:35:16.634Z,5.68
2023-03-29T04:37:43.582Z,5.83
2023-03-29T04:40:19.371Z,5.99
2023-03-29T04:42:47.212Z,5.26
2023-03-29T04:45:17.932Z,5.55
2023-03-29T04:47:45.705Z,5.41
2023-03-29T04:50:13.836Z,5.71
2023-03-29T04:52:40.875Z,5.73
2023-03-29T04:55:08.685Z,5.65
2023-03-29T04:57:35.462Z,5.59
2023-03-29T05:00:07.616Z,5.35
2023-03-29T05:02:34.289Z,5.78
2023-03-29T05:05:00.931Z,5.71
2023-03-29T05:07:27.822Z,5.57
2023-03-29T05:09:54.409Z,5.67
2023-03-29T05:12:21.058Z,6.06
2023-03-29T05:14:47.677Z,5.94
2023-03-29T05:17:14.337Z,5.71
2023-03-29T05:19:41.370Z,5.95
2023-03-29T05:22:08.951Z,5.66
2023-03-29T05:24:36.113Z,5.70
2023-03-29T05:27:02.731Z,6.01
2023-03-29T05:29:29.398Z,5.82
2023-03-29T05:31:56.000Z,6.24
2023-03-29T05:34:22.656Z,6.14
2023-03-29T05:36:49.245Z,6.28
2023-03-29T05:39:15.902Z,5.71
2023-03-29T05:41:42.539Z,6.15
2023-03-29T05:44:09.359Z,5.97
2023-03-29T05:46:36.039Z,5.97
2023-03-29T05:49:02.857Z,5.99
2023-03-29T05:51:29.521Z,6.09
2023-03-29T05:53:56.196Z,6.52
2023-03-29T05:56:22.788Z,6.64
2023-03-29T05:58:49.504Z,6.21
2023-03-29T06:01:18.061Z,6.39
2023-03-29T06:03:46.218Z,6.58
2023-03-29T06:06:16.493Z,6.23
2023-03-29T06:08:44.243Z,6.48
2023-03-29T06:11:13.410Z,6.23
2023-03-29T06:13:41.415Z,6.23
2023-03-29T06:16:10.152Z,5.71
2023-03-29T06:18:40.126Z,6.14
2023-03-29T06:21:09.159Z,6.49
2023-03-29T06:23:36.491Z,6.16
2023-03-29T06:26:04.097Z,6.27
2023-03-29T06:28:30.694Z,6.41
2023-03-29T06:31:02.729Z,6.33
2023-03-29T06:33:30.849Z,6.56
2023-03-29T06:35:57.998Z,6.77
2023-03-29T06:38:28.308Z,6.31
2023-03-29T06:41:03.966Z,6.44
2023-03-29T06:43:33.317Z,6.67
2023-03-29T06:46:00.694Z,6.45
2023-03-29T06:48:27.390Z,6.32
2023-03-29T06:50:54.577Z,6.72
2023-03-29T06:53:22.021Z,6.71
2023-03-29T06:55:51.802Z,6.69
2023-03-29T06:58:18.625Z,7.15
2023-03-29T07:00:45.873Z,7.14
2023-03-29T07:03:20.008Z,7.46
2023-03-29T07:05:47.643Z,7.89
2023-03-29T07:08:16.492Z,7.87
2023-03-29T07:10:47.361Z,8.06
2023-03-29T07:13:15.476Z,8.30
2023-03-29T07:15:44.145Z,8.03
2023-03-29T07:18:12.584Z,8.14
2023-03-29T07:20:40.463Z,7.97
2023-03-29T07:23:09.363Z,8.06
2023-03-29T07:25:37.365Z,7.97
2023-03-29T07:28:04.579Z,7.35
2023-03-29T07:30:32.686Z,7.86
2023-03-29T07:32:59.786Z,8.23
2023-03-29T07:35:27.440Z,8.16
2023-03-29T07:37:55.752Z,8.88
2023-03-29T07:40:23.824Z,10.72
2023-03-29T07:42:53.083Z,10.84
2023-03-29T07:45:26.664Z,11.13
2023-03-29T07:47:58.121Z,11.32
2023-03-29T07:50:26.176Z,11.31
2023-03-29T07:52:53.178Z,10.66
2023-03-29T07:55:19.898Z,10.45
2023-03-29T07:57:46.454Z,10.57
2023-03-29T08:00:17.154Z,10.01
2023-03-29T08:02:45.902Z,10.72
2023-03-29T08:05:15.449Z,10.84
2023-03-29T08:07:47.033Z,9.13
2023-03-29T08:10:17.037Z,9.65
2023-03-29T08:12:45.879Z,9.60
2023-03-29T08:15:13.369Z,9.22
2023-03-29T08:17:40.795Z,9.31
2023-03-29T08:20:11.003Z,9.42
2023-03-29T08:22:38.230Z,9.98
2023-03-29T08:25:06.178Z,11.36
2023-03-29T08:27:33.535Z,10.70
2023-03-29T08:30:00.189Z,10.77
2023-03-29T08:32:26.999Z,10.94
2023-03-29T08:34:53.687Z,11.24
2023-03-29T08:37:20.800Z,11.55
2023-03-29T08:39:48.421Z,10.96
2023-03-29T08:42:14.987Z,11.41
2023-03-29T08:45:00.072Z,11.26
2023-03-29T08:47:46.688Z,12.19
2023-03-29T08:50:15.047Z,12.27
2023-03-29T08:52:57.566Z,12.73
2023-03-29T08:55:40.213Z,12.96
2023-03-29T08:58:17.800Z,11.76
2023-03-29T09:00:50.816Z,11.48
2023-03-29T09:03:34.267Z,11.77
2023-03-29T09:06:07.772Z,11.71
2023-03-29T09:08:47.510Z,11.81
2023-03-29T09:11:32.134Z,11.67
2023-03-29T09:14:32.963Z,11.99
2023-03-29T09:17:10.037Z,12.17
2023-03-29T09:19:46.894Z,12.75
2023-03-29T09:22:23.294Z,12.49
2023-03-29T09:24:56.384Z,12.15
2023-03-29T09:27:26.475Z,12.89
2023-03-29T09:30:26.975Z,13.46
2023-03-29T09:32:58.553Z,13.95
2023-03-29T09:35:38.533Z,13.09
2023-03-29T09:38:10.935Z,13.78
2023-03-29T09:41:16.533Z,14.55
2023-03-29T09:43:45.830Z,12.83
2023-03-29T09:46:38.070Z,13.83
2023-03-29T09:49:12.460Z,12.72
2023-03-29T09:51:42.385Z,12.94
2023-03-29T09:54:12.422Z,12.33
2023-03-29T09:56:39.556Z,11.72
2023-03-29T09:59:07.216Z,12.71
2023-03-29T10:01:39.690Z,13.44
2023-03-29T10:04:08.720Z,14.35
2023-03-29T10:06:37.536Z,13.84
2023-03-29T10:09:04.589Z,14.46
2023-03-29T10:11:37.045Z,14.81
2023-03-29T10:14:12.269Z,14.03
2023-03-29T10:16:46.252Z,14.41
2023-03-29T10:19:18.821Z,13.99
2023-03-29T10:21:48.973Z,15.51
2023-03-29T10:24:21.277Z,15.37
2023-03-29T10:26:55.591Z,14.52
2023-03-29T10:29:25.659Z,14.32
2023-03-29T10:31:52.958Z,14.87
2023-03-29T10:34:25.276Z,14.77
2023-03-29T10:36:58.888Z,15.06
2023-03-29T10:39:32.443Z,14.94
2023-03-29T10:42:00.488Z,16.08
2023-03-29T10:44:32.957Z,15.85
2023-03-29T10:47:19.556Z,16.38
2023-03-29T10:49:57.251Z,16.55
2023-03-29T10:52:24.985Z,17.58
2023-03-29T10:54:55.855Z,17.68
2023-03-29T10:57:44.756Z,18.44
2023-03-29T11:00:39.785Z,18.64
2023-03-29T11:03:21.977Z,16.95
2023-03-29T11:06:02.930Z,17.76
2023-03-29T11:08:58.215Z,16.91
2023-03-29T11:12:04.438Z,17.17
2023-03-29T11:15:12.676Z,17.80
2023-03-29T11:18:00.911Z,17.53
2023-03-29T11:21:10.665Z,18.28
2023-03-29T11:24:21.989Z,17.66
2023-03-29T11:27:09.344Z,18.08
2023-03-29T11:29:53.395Z,18.85
2023-03-29T11:32:28.991Z,18.10
2023-03-29T11:35:06.011Z,18.33
2023-03-29T11:37:58.172Z,18.11
2023-03-29T11:40:27.898Z,17.70
2023-03-29T11:42:58.077Z,17.94
2023-03-29T11:45:39.848Z,17.45
2023-03-29T11:48:16.493Z,17.03
2023-03-29T11:50:56.116Z,16.82
2023-03-29T11:53:37.062Z,16.11
2023-03-29T11:56:14.406Z,17.23
2023-03-29T11:58:50.355Z,17.43
2023-03-29T12:01:34.646Z,17.37
2023-03-29T12:04:12.835Z,18.93
2023-03-29T12:06:53.247Z,19.28
2023-03-29T12:09:31.689Z,19.98
2023-03-29T12:12:28.381Z,21.81
2023-03-29T12:15:10.749Z,23.40
2023-03-29T12:18:06.916Z,23.06
2023-03-29T12:20:39.550Z,22.35
2023-03-29T12:23:08.548Z,22.17
2023-03-29T12:26:00.548Z,22.06
2023-03-29T12:28:46.013Z,20.98
2023-03-29T12:31:47.331Z,21.19
2023-03-29T12:34:35.280Z,21.25
2023-03-29T12:37:32.102Z,21.97
2023-03-29T12:40:13.485Z,21.97
2023-03-29T12:42:58.193Z,21.91
2023-03-29T12:45:39.975Z,25.71
2023-03-29T12:48:08.546Z,24.04
2023-03-29T12:50:48.897Z,24.80
2023-03-29T12:53:23.230Z,25.68
2023-03-29T12:55:55.014Z,24.66
2023-03-29T12:59:01.357Z,26.04
2023-03-29T13:01:34.520Z,26.62
2023-03-29T13:04:01.394Z,27.58
2023-03-29T13:06:35.368Z,28.30
2023-03-29T13:09:23.120Z,28.11
2023-03-29T13:11:55.460Z,29.19
2023-03-29T13:14:30.066Z,28.07
2023-03-29T13:17:18.237Z,27.14
2023-03-29T13:20:29.879Z,27.50
2023-03-29T13:23:18.823Z,26.04
2023-03-29T13:26:08.134Z,26.98
2023-03-29T13:29:16.281Z,24.71
2023-03-29T13:31:58.018Z,23.88
2023-03-29T13:34:35.306Z,22.11
2023-03-29T13:37:36.547Z,22.40
2023-03-29T13:40:43.986Z,23.13
2023-03-29T13:43:23.465Z,23.74
2023-03-29T13:45:59.211Z,24.05
2023-03-29T13:48:35.038Z,23.27
2023-03-29T13:51:08.295Z,25.65
2023-03-29T13:53:46.272Z,25.77
2023-03-29T13:56:19.989Z,25.79
2023-03-29T13:58:53.349Z,26.73
2023-03-29T14:01:31.569Z,26.90
2023-03-29T14:03:59.528Z,25.00
2023-03-29T14:06:38.384Z,25.13
2023-03-29T14:09:09.137Z,24.89
2023-03-29T14:11:36.578Z,23.53
2023-03-29T14:14:07.041Z,23.89
2023-03-29T14:16:38.610Z,23.76
2023-03-29T14:19:15.481Z,23.44
2023-03-29T14:21:44.195Z,23.52
2023-03-29T14:24:16.625Z,23.12
2023-03-29T14:26:46.326Z,23.16
2023-03-29T14:29:12.998Z,22.33
2023-03-29T14:31:41.896Z,21.91
2023-03-29T14:34:16.764Z,22.97
2023-03-29T14:36:54.040Z,22.36
2023-03-29T14:39:23.343Z,20.84
2023-03-29T14:41:59.572Z,21.99
2023-03-29T14:44:31.820Z,20.99
2023-03-29T14:46:59.778Z,20.70
2023-03-29T14:49:27.104Z,19.56
2023-03-29T14:51:55.126Z,20.26
2023-03-29T14:54:26.999Z,19.79
2023-03-29T14:56:54.451Z,19.23
2023-03-29T14:59:25.721Z,18.34
2023-03-29T15:01:52.996Z,17.92
2023-03-29T15:04:19.758Z,17.26
2023-03-29T15:06:47.045Z,17.60
2023-03-29T15:09:26.917Z,17.79
2023-03-29T15:11:56.527Z,17.19
2023-03-29T15:14:27.953Z,16.59
2023-03-29T15:17:03.144Z,16.73
2023-03-29T15:19:30.933Z,16.93
2023-03-29T15:21:58.819Z,16.20
2023-03-29T15:24:32.768Z,16.69
2023-03-29T15:27:11.248Z,16.42
2023-03-29T15:29:42.098Z,15.92
2023-03-29T15:32:11.526Z,16.06
2023-03-29T15:34:38.472Z,15.53
2023-03-29T15:37:05.219Z,14.64
2023-03-29T15:39:32.359Z,13.20
2023-03-29T15:41:59.206Z,12.57
2023-03-29T15:44:33.473Z,12.33
2023-03-29T15:47:00.342Z,12.26
2023-03-29T15:49:27.484Z,11.14
2023-03-29T15:51:55.121Z,10.55
2023-03-29T15:54:22.508Z,11.28
2023-03-29T15:56:55.202Z,11.60
2023-03-29T15:59:22.870Z,11.46
2023-03-29T16:01:49.956Z,11.39
2023-03-29T16:04:21.676Z,11.31
2023-03-29T16:06:52.787Z,11.22
2023-03-29T16:09:21.395Z,11.17
2023-03-29T16:11:49.342Z,10.65
2023-03-29T16:14:27.254Z,10.27
2023-03-29T16:16:58.535Z,10.22
2023-03-29T16:19:26.938Z,10.41
2023-03-29T16:21:54.776Z,10.01
2023-03-29T16:24:24.121Z,9.87
2023-03-29T16:26:54.748Z,9.47
2023-03-29T16:29:22.813Z,9.42
2023-03-29T16:31:50.515Z,9.11
2023-03-29T16:34:18.743Z,8.86
2023-03-29T16:36:49.489Z,8.85
2023-03-29T16:39:18.076Z,9.07
2023-03-29T16:41:48.370Z,8.94
2023-03-29T16:44:23.624Z,9.76
2023-03-29T16:46:52.625Z,9.34
2023-03-29T16:49:19.507Z,9.64
2023-03-29T16:51:47.428Z,9.43
2023-03-29T16:54:15.544Z,9.49
2023-03-29T16:56:42.260Z,9.13
2023-03-29T16:59:09.335Z,8.80
2023-03-29T17:01:36.656Z,9.15
2023-03-29T17:04:04.173Z,11.02
2023-03-29T17:06:32.491Z,9.22
2023-03-29T17:08:59.326Z,9.40
2023-03-29T17:11:26.866Z,9.07
2023-03-29T17:13:53.985Z,8.91
2023-03-29T17:16:21.106Z,9.17
2023-03-29T17:18:47.862Z,9.42
2023-03-29T17:21:14.563Z,9.19
2023-03-29T17:23:41.379Z,9.36
2023-03-29T17:26:08.462Z,9.21
2023-03-29T17:28:35.796Z,9.21
2023-03-29T17:31:07.807Z,9.47
2023-03-29T17:33:36.045Z,9.49
2023-03-29T17:36:04.130Z,9.18
2023-03-29T17:38:34.097Z,9.55
2023-03-29T17:41:02.677Z,8.93
2023-03-29T17:43:29.320Z,9.11
2023-03-29T17:45:56.290Z,9.38
2023-03-29T17:48:23.834Z,9.27
2023-03-29T17:50:50.647Z,9.51
2023-03-29T17:53:17.245Z,9.33
2023-03-29T17:55:43.892Z,9.85
2023-03-29T17:58:10.999Z,9.38
2023-03-29T18:00:37.968Z,10.22
2023-03-29T18:03:04.624Z,10.38
2023-03-29T18:05:31.355Z,10.09
2023-03-29T18:07:58.109Z,10.26
2023-03-29T18:10:24.783Z,10.53
2023-03-29T18:12:51.716Z,10.51
2023-03-29T18:15:19.179Z,10.43
2023-03-29T18:17:45.968Z,10.52
2023-03-29T18:20:13.503Z,10.55
2023-03-29T18:22:44.094Z,11.05
2023-03-29T18:25:11.185Z,10.92
2023-03-29T18:27:39.298Z,11.40
2023-03-29T18:30:08.677Z,11.44
2023-03-29T18:32:36.137Z,11.41
2023-03-29T18:35:03.240Z,11.94
2023-03-29T18:37:29.923Z,11.54
2023-03-29T18:39:56.915Z,11.60
2023-03-29T18:42:23.706Z,11.71
2023-03-29T18:44:51.152Z,10.98
2023-03-29T18:47:18.343Z,11.17
2023-03-29T18:49:45.074Z,10.69
2023-03-29T18:52:11.846Z,11.22
2023-03-29T18:54:38.810Z,11.09
2023-03-29T18:57:05.603Z,10.69
2023-03-29T18:59:32.349Z,10.48
2023-03-29T19:01:58.955Z,10.25
2023-03-29T19:04:27.220Z,10.08
2023-03-29T19:06:55.553Z,10.34
2023-03-29T19:09:22.806Z,10.30
2023-03-29T19:11:49.448Z,9.96
2023-03-29T19:14:17.393Z,10.02
2023-03-29T19:16:44.093Z,9.84
2023-03-29T19:19:11.015Z,10.43
2023-03-29T19:21:38.513Z,10.38
2023-03-29T19:24:07.654Z,9.77
2023-03-29T19:26:34.402Z,9.74
2023-03-29T19:29:01.454Z,9.46
2023-03-29T19:31:28.250Z,9.40
2023-03-29T19:33:55.182Z,9.39
2023-03-29T19:36:22.166Z,9.27
2023-03-29T19:38:48.739Z,9.35
2023-03-29T19:41:15.331Z,8.91
2023-03-29T19:43:41.893Z,9.06
2023-03-29T19:46:10.988Z,9.08
2023-03-29T19:48:39.366Z,9.04
2023-03-29T19:51:06.713Z,9.06
2023-03-29T19:53:37.164Z,8.49
2023-03-29T19:56:07.577Z,8.79
2023-03-29T19:58:34.402Z,8.93
2023-03-29T20:01:01.222Z,9.17
2023-03-29T20:03:28.390Z,9.67
2023-03-29T20:05:56.495Z,11.84
2023-03-29T20:08:24.834Z,14.90
2023-03-29T20:11:03.939Z,15.95
2023-03-29T20:13:38.315Z,16.45
2023-03-29T20:16:14.971Z,16.45
2023-03-29T20:18:44.732Z,17.25
2023-03-29T20:21:19.194Z,17.20
2023-03-29T20:23:46.071Z,17.23
2023-03-29T20:26:12.968Z,16.82
2023-03-29T20:28:39.682Z,16.06
2023-03-29T20:31:08.947Z,14.71
2023-03-29T20:33:35.624Z,13.25
2023-03-29T20:36:02.465Z,12.75
2023-03-29T20:38:29.242Z,11.71
2023-03-29T20:40:55.837Z,11.39
2023-03-29T20:43:22.570Z,10.68
2023-03-29T20:45:52.522Z,10.82
2023-03-29T20:48:23.050Z,10.07
2023-03-29T20:50:51.327Z,9.91
2023-03-29T20:53:20.207Z,9.49
2023-03-29T20:55:47.809Z,9.05
2023-03-29T20:58:15.724Z,8.71
2023-03-29T21:00:42.595Z,8.63
2023-03-29T21:03:09.895Z,8.76
2023-03-29T21:05:36.922Z,8.96
2023-03-29T21:08:04.404Z,8.95
2023-03-29T21:10:31.569Z,9.34
2023-03-29T21:13:00.457Z,9.64
2023-03-29T21:15:30.446Z,9.94
2023-03-29T21:17:57.387Z,9.62
2023-03-29T21:20:24.274Z,9.24
2023-03-29T21:22:51.110Z,8.93
2023-03-29T21:25:17.781Z,9.06
2023-03-29T21:27:44.431Z,8.95
2023-03-29T21:30:11.429Z,8.63
2023-03-29T21:32:38.077Z,8.54
2023-03-29T21:35:05.209Z,8.75
2023-03-29T21:37:31.827Z,8.04
2023-03-29T21:39:58.462Z,8.20
2023-03-29T21:42:25.142Z,8.82
2023-03-29T21:44:51.759Z,8.71
2023-03-29T21:47:18.389Z,8.42
2023-03-29T21:49:45.396Z,8.47
2023-03-29T21:52:12.019Z,8.54
2023-03-29T21:54:38.611Z,8.22
2023-03-29T21:57:05.288Z,8.76
2023-03-29T21:59:31.947Z,8.64
2023-03-29T22:01:58.631Z,8.65
2023-03-29T22:04:36.071Z,8.93
2023-03-29T22:07:05.027Z,8.76
2023-03-29T22:09:34.886Z,8.69
2023-03-29T22:12:01.735Z,8.66
2023-03-29T22:14:30.182Z,8.57
2023-03-29T22:16:56.976Z,8.49
2023-03-29T22:19:23.786Z,8.49
2023-03-29T22:21:51.294Z,8.29
2023-03-29T22:24:19.142Z,8.93
2023-03-29T22:26:45.933Z,9.07
2023-03-29T22:29:12.494Z,8.08
2023-03-29T22:31:39.453Z,8.44
2023-03-29T22:34:06.969Z,8.53
2023-03-29T22:36:33.684Z,8.61
2023-03-29T22:39:00.717Z,8.60
2023-03-29T22:41:28.243Z,8.44
2023-03-29T22:43:57.584Z,8.29
2023-03-29T22:46:25.115Z,8.13
2023-03-29T22:48:52.378Z,8.12
2023-03-29T22:51:20.308Z,7.72
2023-03-29T22:53:47.075Z,8.01
2023-03-29T22:56:15.443Z,7.79
2023-03-29T22:58:42.518Z,7.60
2023-03-29T23:01:09.537Z,7.87
2023-03-29T23:03:36.830Z,7.72
2023-03-29T23:06:04.027Z,7.53
2023-03-29T23:08:33.005Z,7.24
2023-03-29T23:11:00.592Z,6.86
2023-03-29T23:13:29.148Z,7.43
2023-03-29T23:16:00.955Z,7.75
2023-03-29T23:18:30.196Z,7.29
2023-03-29T23:20:58.206Z,7.37
2023-03-29T23:23:26.931Z,7.05
2023-03-29T23:25:55.443Z,7.28
2023-03-29T23:28:25.956Z,7.60
2023-03-29T23:31:03.240Z,6.82
2023-03-29T23:33:33.682Z,6.82
2023-03-29T23:36:03.642Z,6.69
2023-03-29T23:38:31.096Z,6.64
2023-03-29T23:41:00.802Z,6.95
2023-03-29T23:43:37.284Z,7.05
2023-03-29T23:46:06.155Z,6.90
2023-03-29T23:48:34.302Z,6.76
2023-03-29T23:51:02.759Z,6.69
2023-03-29T23:53:30.611Z,6.81
2023-03-29T23:56:02.064Z,6.93
2023-03-29T23:58:30.937Z,6.58
